CYXP

Details ICAO CYXP (YXP)
Name Pangnirtung
Region Canada
Timezone Unknown (UTC+0.0)
Plans Departing 4
Arriving 10
Stats Elevation 73 ft / 22 m (AMSL)
Location 66.144940° -65.713130°
Runways 1
Magnetic Variation 30.537° W
Sunrise 2017-12-12 14:49:08 UTC / 2017-12-12 14:49:08 Local
Sunset 2017-12-12 17:47:04 UTC / 2017-12-12 17:47:04 Local
Advertisement - Login to hide

Runways

ID Width Length Bearing (true) Bearing (mag) Surface Threshold Offset Overrun Length
06T 98 ft / 30 m 2,919 ft / 890 m 60.95° 91.49° Gravel 0 ft / 0 m 0 ft / 0 m
24T 98 ft / 30 m 2,919 ft / 890 m 240.97° 271.51° Gravel 0 ft / 0 m 0 ft / 0 m

Map

Weather


0- 5 10 15 20 25 30 35+ Temperature / ° C

Clouds and Precipitation
Forecast for 2017-12-13 00:00 UTC. Updated an hour ago

Ground ~20,000 ft ~40,000 ft Winds

METAR

CYXP 122200Z 28006KT 4SM -SN BKN015 OVC020 M16/M19 A2956 RMK SN2ST3SC3 CIG ESTD SLP015

TAF

TAF AMD TAF AMD CYXP 121852Z 1219/1223 VRB03KT P6SM SCT012 BKN025 TEMPO 1219/1223 21/2SM -SN BKN012 OVC025 BECMG 1221/1223 24010KT RMK NXT FCST WILL BE ISSUED AT 131345Z

Frequencies

Recorded 118.50 MHz AWOS
Unicom 122.10 MHz MULTICOM
Warning: Do not use this data for real-world aviation or navigation. No guarantee of current accuracy is given.